createdAt,value
2022-11-20T00:01:39.875Z,99702.72
2022-11-20T00:04:10.366Z,99690.72
2022-11-20T00:06:39.217Z,99695.94
2022-11-20T00:09:07.682Z,99685.69
2022-11-20T00:11:38.011Z,99683.03
2022-11-20T00:14:06.461Z,99688.94
2022-11-20T00:16:35.808Z,99684.81
2022-11-20T00:19:04.385Z,99679.69
2022-11-20T00:21:32.894Z,99673.69
2022-11-20T00:24:01.770Z,99669.44
2022-11-20T00:26:31.360Z,99672.91
2022-11-20T00:29:03.050Z,99675.47
2022-11-20T00:31:34.007Z,99679.00
2022-11-20T00:34:02.556Z,99687.44
2022-11-20T00:36:34.919Z,99681.53
2022-11-20T00:39:03.415Z,99676.44
2022-11-20T00:41:32.475Z,99680.88
2022-11-20T00:44:02.450Z,99685.22
2022-11-20T00:46:31.181Z,99675.88
2022-11-20T00:49:00.405Z,99679.22
2022-11-20T00:51:29.906Z,99681.19
2022-11-20T00:54:01.020Z,99686.28
2022-11-20T00:56:29.947Z,99685.41
2022-11-20T00:59:03.804Z,99683.84
2022-11-20T01:01:32.715Z,99679.50
2022-11-20T01:04:02.318Z,99684.50
2022-11-20T01:06:33.608Z,99677.63
2022-11-20T01:09:05.810Z,99677.63
2022-11-20T01:11:37.376Z,99670.75
2022-11-20T01:14:10.722Z,99678.50
2022-11-20T01:16:41.499Z,99673.38
2022-11-20T01:19:17.702Z,99671.81
2022-11-20T01:21:50.000Z,99664.16
2022-11-20T01:24:20.882Z,99663.34
2022-11-20T01:26:51.328Z,99669.38
2022-11-20T01:29:23.904Z,99667.78
2022-11-20T01:31:53.565Z,99667.78
2022-11-20T01:34:24.399Z,99664.66
2022-11-20T01:36:53.713Z,99667.22
2022-11-20T01:39:24.693Z,99656.09
2022-11-20T01:42:12.475Z,99650.84
2022-11-20T01:44:56.698Z,99651.63
2022-11-20T01:47:35.580Z,99644.84
2022-11-20T01:50:08.455Z,99637.16
2022-11-20T01:52:43.409Z,99633.94
2022-11-20T01:55:16.995Z,99633.13
2022-11-20T01:57:47.710Z,99627.09
2022-11-20T02:00:21.203Z,99621.97
2022-11-20T02:02:56.891Z,99624.53
2022-11-20T02:05:31.667Z,99625.53
2022-11-20T02:08:01.245Z,99618.56
2022-11-20T02:10:31.892Z,99623.69
2022-11-20T02:13:18.451Z,99624.47
2022-11-20T02:15:49.997Z,99643.28
2022-11-20T02:18:21.682Z,99631.44
2022-11-20T02:20:54.375Z,99627.22
2022-11-20T02:23:32.102Z,99627.44
2022-11-20T02:26:06.352Z,99620.63
2022-11-20T02:28:35.245Z,99616.31
2022-11-20T02:31:03.837Z,99619.75
2022-11-20T02:33:32.309Z,99617.19
2022-11-20T02:36:00.867Z,99613.84
2022-11-20T02:38:29.426Z,99613.84
2022-11-20T02:40:57.818Z,99609.69
2022-11-20T02:43:27.721Z,99616.59
2022-11-20T02:45:56.151Z,99619.16
2022-11-20T02:48:25.385Z,99615.81
2022-11-20T02:50:53.897Z,99601.34
2022-11-20T02:53:22.300Z,99599.66
2022-11-20T02:55:50.688Z,99603.09
2022-11-20T02:58:19.085Z,99603.97
2022-11-20T03:00:49.419Z,99596.28
2022-11-20T03:03:17.796Z,99595.50
2022-11-20T03:05:46.191Z,99601.50
2022-11-20T03:08:14.702Z,99604.97
2022-11-20T03:10:43.090Z,99609.31
2022-11-20T03:13:11.557Z,99597.28
2022-11-20T03:15:40.127Z,99603.19
2022-11-20T03:18:10.093Z,99602.22
2022-11-20T03:20:38.505Z,99597.09
2022-11-20T03:23:07.096Z,99588.41
2022-11-20T03:25:35.481Z,99590.31
2022-11-20T03:28:04.200Z,99589.31
2022-11-20T03:30:32.640Z,99589.97
2022-11-20T03:33:01.183Z,99584.84
2022-11-20T03:35:30.927Z,99589.91
2022-11-20T03:38:00.289Z,99582.13
2022-11-20T03:40:28.795Z,99585.34
2022-11-20T03:42:57.170Z,99580.94
2022-11-20T03:45:26.004Z,99577.59
2022-11-20T03:47:54.743Z,99586.25
2022-11-20T03:50:23.544Z,99581.13
2022-11-20T03:52:53.603Z,99577.88
2022-11-20T03:55:22.196Z,99576.22
2022-11-20T03:57:50.655Z,99568.59
2022-11-20T04:00:19.420Z,99578.06
2022-11-20T04:02:48.301Z,99567.94
2022-11-20T04:05:16.886Z,99566.38
2022-11-20T04:07:45.584Z,99570.78
2022-11-20T04:10:15.660Z,99564.09
2022-11-20T04:12:44.133Z,99564.97
2022-11-20T04:15:12.569Z,99560.81
2022-11-20T04:17:40.915Z,99559.16
2022-11-20T04:20:10.612Z,99557.56
2022-11-20T04:22:39.464Z,99563.59
2022-11-20T04:25:09.032Z,99566.34
2022-11-20T04:27:38.826Z,99562.88
2022-11-20T04:30:08.729Z,99567.38
2022-11-20T04:32:37.132Z,99563.13
2022-11-20T04:35:06.415Z,99570.91
2022-11-20T04:37:35.221Z,99568.44
2022-11-20T04:40:03.643Z,99571.81
2022-11-20T04:42:32.052Z,99572.78
2022-11-20T04:45:01.932Z,99573.66
2022-11-20T04:47:30.366Z,99567.75
2022-11-20T04:50:01.192Z,99564.41
2022-11-20T04:52:29.656Z,99565.38
2022-11-20T04:54:58.409Z,99562.81
2022-11-20T04:57:26.946Z,99562.91
2022-11-20T04:59:55.354Z,99565.47
2022-11-20T05:02:25.869Z,99562.03
2022-11-20T05:04:54.586Z,99565.56
2022-11-20T05:07:23.131Z,99571.47
2022-11-20T05:09:51.577Z,99568.13
2022-11-20T05:12:19.967Z,99564.59
2022-11-20T05:14:48.358Z,99564.59
2022-11-20T05:17:16.973Z,99570.50
2022-11-20T05:19:50.636Z,99574.81
2022-11-20T05:22:21.424Z,99572.28
2022-11-20T05:24:49.975Z,99574.81
2022-11-20T05:27:18.355Z,99572.38
2022-11-20T05:29:47.100Z,99576.72
2022-11-20T05:32:15.884Z,99574.16
2022-11-20T05:34:44.309Z,99570.81
2022-11-20T05:37:15.304Z,99569.09
2022-11-20T05:39:43.772Z,99569.91
2022-11-20T05:42:29.715Z,99565.69
2022-11-20T05:44:58.142Z,99566.34
2022-11-20T05:47:26.924Z,99565.47
2022-11-20T05:49:55.545Z,99568.13
2022-11-20T05:52:25.399Z,99566.34
2022-11-20T05:54:53.705Z,99568.13
2022-11-20T05:57:22.250Z,99568.13
2022-11-20T05:59:50.583Z,99561.41
2022-11-20T06:02:18.965Z,99561.41
2022-11-20T06:04:47.379Z,99559.66
2022-11-20T06:07:15.825Z,99562.22
2022-11-20T06:09:45.790Z,99557.88
2022-11-20T06:12:14.345Z,99560.44
2022-11-20T06:14:42.789Z,99564.59
2022-11-20T06:17:11.226Z,99563.00
2022-11-20T06:19:39.614Z,99566.34
2022-11-20T06:22:08.015Z,99556.09
2022-11-20T06:24:36.352Z,99556.09
2022-11-20T06:27:06.218Z,99562.13
2022-11-20T06:29:34.588Z,99560.34
2022-11-20T06:32:03.249Z,99566.25
2022-11-20T06:34:31.693Z,99566.97
2022-11-20T06:37:00.075Z,99578.19
2022-11-20T06:39:28.527Z,99569.59
2022-11-20T06:41:59.060Z,99563.50
2022-11-20T06:44:29.432Z,99569.53
2022-11-20T06:46:58.038Z,99578.00
2022-11-20T06:49:26.473Z,99577.00
2022-11-20T06:51:54.854Z,99572.66
2022-11-20T06:54:23.197Z,99571.81
2022-11-20T06:56:51.767Z,99586.28
2022-11-20T06:59:20.893Z,99579.38
2022-11-20T07:01:51.065Z,99576.81
2022-11-20T07:04:19.592Z,99572.47
2022-11-20T07:06:48.018Z,99575.78
2022-11-20T07:09:17.279Z,99579.13
2022-11-20T07:11:45.753Z,99574.91
2022-11-20T07:14:14.379Z,99572.22
2022-11-20T07:16:42.940Z,99578.97
2022-11-20T07:19:12.740Z,99585.88
2022-11-20T07:21:41.147Z,99585.88
2022-11-20T07:24:09.786Z,99585.75
2022-11-20T07:26:38.266Z,99586.53
2022-11-20T07:29:06.843Z,99586.53
2022-11-20T07:31:35.302Z,99598.47
2022-11-20T07:34:03.865Z,99594.13
2022-11-20T07:36:33.630Z,99605.25
2022-11-20T07:39:02.125Z,99597.50
2022-11-20T07:41:30.632Z,99601.78
2022-11-20T07:43:59.417Z,99592.38
2022-11-20T07:46:27.813Z,99592.44
2022-11-20T07:48:56.384Z,99599.25
2022-11-20T07:51:24.767Z,99598.47
2022-11-20T07:53:55.881Z,99592.56
2022-11-20T07:56:24.267Z,99585.66
2022-11-20T07:58:52.664Z,99589.00
2022-11-20T08:01:21.106Z,99600.91
2022-11-20T08:03:49.615Z,99612.03
2022-11-20T08:06:19.483Z,99611.16
2022-11-20T08:08:48.400Z,99601.72
2022-11-20T08:11:35.819Z,99595.72
2022-11-20T08:14:16.777Z,99593.03
2022-11-20T08:16:47.177Z,99588.69
2022-11-20T08:19:17.472Z,99582.91
2022-11-20T08:21:46.584Z,99587.25
2022-11-20T08:24:15.370Z,99594.13
2022-11-20T08:26:45.294Z,99589.97
2022-11-20T08:29:13.959Z,99583.09
2022-11-20T08:31:42.263Z,99587.44
2022-11-20T08:34:13.809Z,99577.19
2022-11-20T08:36:44.807Z,99584.19
2022-11-20T08:39:14.423Z,99584.09
2022-11-20T08:41:44.152Z,99584.97
2022-11-20T08:44:12.560Z,99577.28
2022-11-20T08:46:44.483Z,99587.59
2022-11-20T08:49:14.814Z,99583.38
2022-11-20T08:51:44.137Z,99572.34
2022-11-20T08:54:14.412Z,99580.03
2022-11-20T08:56:44.572Z,99587.84
2022-11-20T08:59:50.812Z,99577.59
2022-11-20T09:02:01.463Z,99586.03
2022-11-20T09:04:30.357Z,99592.31
2022-11-20T09:06:58.916Z,99587.06
2022-11-20T09:09:27.441Z,99580.34
2022-11-20T09:11:57.205Z,99583.00
2022-11-20T09:14:30.005Z,99584.91
2022-11-20T09:16:58.948Z,99584.97
2022-11-20T09:22:16.048Z,99582.50
2022-11-20T09:24:44.699Z,99577.50
2022-11-20T09:27:14.419Z,99581.91
2022-11-20T09:29:42.788Z,99585.28
2022-11-20T09:32:11.238Z,99583.69
2022-11-20T09:34:39.604Z,99574.22
2022-11-20T09:37:08.039Z,99569.09
2022-11-20T09:39:39.730Z,99566.75
2022-11-20T09:42:35.145Z,99568.31
2022-11-20T09:45:18.397Z,99570.09
2022-11-20T09:48:03.706Z,99558.06
2022-11-20T09:50:38.404Z,99558.06
2022-11-20T09:53:22.371Z,99551.38
2022-11-20T09:55:51.587Z,99553.16
2022-11-20T09:58:33.278Z,99555.00
2022-11-20T10:01:12.962Z,99560.22
2022-11-20T10:03:54.099Z,99553.53
2022-11-20T10:06:31.779Z,99543.34
2022-11-20T10:09:10.451Z,99541.88
2022-11-20T10:11:52.181Z,99537.81
2022-11-20T10:14:32.625Z,99530.25
2022-11-20T10:17:13.699Z,99538.91
2022-11-20T10:20:07.674Z,99534.97
2022-11-20T10:22:54.226Z,99544.44
2022-11-20T10:25:26.400Z,99540.16
2022-11-20T10:28:28.212Z,99533.34
2022-11-20T10:31:04.916Z,99523.19
2022-11-20T10:33:56.997Z,99521.63
2022-11-20T10:36:31.302Z,99519.13
2022-11-20T10:39:07.099Z,99503.94
2022-11-20T10:41:41.325Z,99513.59
2022-11-20T10:44:37.927Z,99504.31
2022-11-20T10:47:14.386Z,99507.84
2022-11-20T10:49:44.564Z,99507.84
2022-11-20T10:52:22.076Z,99519.09
2022-11-20T10:55:02.045Z,99508.84
2022-11-20T10:57:52.845Z,99502.91
2022-11-20T11:00:21.350Z,99500.34
2022-11-20T11:02:53.013Z,99497.78
2022-11-20T11:05:38.072Z,99501.25
2022-11-20T11:08:13.333Z,99502.13
2022-11-20T11:10:48.847Z,99496.22
2022-11-20T11:13:23.482Z,99486.84
2022-11-20T11:15:52.481Z,99483.47
2022-11-20T11:18:32.629Z,99484.56
2022-11-20T11:21:03.944Z,99479.50
2022-11-20T11:23:36.417Z,99473.78
2022-11-20T11:26:08.068Z,99472.16
2022-11-20T11:28:36.826Z,99468.13
2022-11-20T11:31:05.183Z,99463.06
2022-11-20T11:33:35.673Z,99450.44
2022-11-20T11:36:16.670Z,99454.03
2022-11-20T11:38:46.663Z,99446.34
2022-11-20T11:41:21.272Z,99449.09
2022-11-20T11:44:10.065Z,99439.78
2022-11-20T11:46:39.745Z,99424.41
2022-11-20T11:49:20.534Z,99427.94
2022-11-20T11:52:02.429Z,99431.50
2022-11-20T11:54:37.517Z,99428.16
2022-11-20T11:57:14.569Z,99424.06
2022-11-20T11:59:55.432Z,99425.91
2022-11-20T12:02:38.754Z,99420.16
2022-11-20T12:05:20.105Z,99406.56
2022-11-20T12:07:52.629Z,99399.81
2022-11-20T12:10:25.547Z,99399.00
2022-11-20T12:13:03.099Z,99403.50
2022-11-20T12:15:35.657Z,99399.38
2022-11-20T12:18:04.543Z,99384.94
2022-11-20T12:20:45.152Z,99379.00
2022-11-20T12:23:26.443Z,99370.59
2022-11-20T12:25:59.201Z,99369.78
2022-11-20T12:28:54.981Z,99379.28
2022-11-20T12:31:43.317Z,99373.31
2022-11-20T12:34:26.591Z,99367.31
2022-11-20T12:37:07.877Z,99363.03
2022-11-20T12:39:44.176Z,99368.28
2022-11-20T12:43:05.058Z,99362.25
2022-11-20T12:46:19.323Z,99357.75
2022-11-20T12:49:23.311Z,99359.44
2022-11-20T12:52:20.279Z,99360.22
2022-11-20T12:55:17.840Z,99350.75
2022-11-20T12:57:53.063Z,99351.66
2022-11-20T13:00:23.545Z,99341.38
2022-11-20T13:03:14.207Z,99352.53
2022-11-20T13:05:59.100Z,99338.03
2022-11-20T13:08:32.427Z,99338.91
2022-11-20T13:11:11.960Z,99325.28
2022-11-20T13:13:57.183Z,99324.41
2022-11-20T13:16:36.651Z,99318.56
2022-11-20T13:19:06.217Z,99307.31
2022-11-20T13:21:41.013Z,99293.59
2022-11-20T13:24:27.402Z,99287.59
2022-11-20T13:27:21.964Z,99277.31
2022-11-20T13:30:04.748Z,99279.09
2022-11-20T13:32:33.410Z,99275.63
2022-11-20T13:35:04.298Z,99272.38
2022-11-20T13:37:35.468Z,99268.97
2022-11-20T13:40:24.703Z,99260.38
2022-11-20T13:43:10.845Z,99265.47
2022-11-20T13:45:39.598Z,99258.66
2022-11-20T13:48:23.647Z,99254.47
2022-11-20T13:51:05.519Z,99256.13
2022-11-20T13:53:59.073Z,99258.69
2022-11-20T13:56:42.713Z,99259.53
2022-11-20T13:59:26.580Z,99259.59
2022-11-20T14:01:56.479Z,99250.84
2022-11-20T14:04:32.473Z,99244.94
2022-11-20T14:07:01.520Z,99238.91
2022-11-20T14:09:32.335Z,99238.13
2022-11-20T14:12:03.916Z,99227.91
2022-11-20T14:14:34.461Z,99221.03
2022-11-20T14:17:10.310Z,99219.41
2022-11-20T14:19:42.137Z,99217.72
2022-11-20T14:22:22.382Z,99202.41
2022-11-20T14:25:04.583Z,99204.19
2022-11-20T14:27:37.391Z,99197.28
2022-11-20T14:30:13.811Z,99203.31
2022-11-20T14:32:43.391Z,99195.69
2022-11-20T14:35:19.975Z,99190.56
2022-11-20T14:37:48.956Z,99180.31
2022-11-20T14:40:31.092Z,99179.41
2022-11-20T14:43:02.175Z,99182.03
2022-11-20T14:45:31.041Z,99169.19
2022-11-20T14:48:01.892Z,99164.06
2022-11-20T14:50:31.534Z,99158.00
2022-11-20T14:53:02.450Z,99163.13
2022-11-20T14:55:34.592Z,99153.75
2022-11-20T14:58:08.215Z,99157.19
2022-11-20T15:00:38.129Z,99144.38
2022-11-20T15:03:17.770Z,99148.63
2022-11-20T15:05:50.506Z,99136.56
2022-11-20T15:08:19.694Z,99130.56
2022-11-20T15:10:50.299Z,99132.34
2022-11-20T15:13:28.455Z,99125.44
2022-11-20T15:16:00.322Z,99138.25
2022-11-20T15:18:32.530Z,99119.41
2022-11-20T15:21:05.285Z,99122.78
2022-11-20T15:23:33.700Z,99113.25
2022-11-20T15:26:02.409Z,99109.84
2022-11-20T15:28:35.997Z,99103.94
2022-11-20T15:31:05.513Z,99097.84
2022-11-20T15:33:35.331Z,99103.84
2022-11-20T15:36:03.967Z,99103.03
2022-11-20T15:38:32.664Z,99088.53
2022-11-20T15:41:01.144Z,99087.63
2022-11-20T15:43:29.562Z,99072.19
2022-11-20T15:46:02.858Z,99068.78
2022-11-20T15:48:34.503Z,99069.69
2022-11-20T15:51:10.085Z,99072.19
2022-11-20T15:53:38.829Z,99061.94
2022-11-20T15:56:07.403Z,99059.34
2022-11-20T15:58:36.604Z,99048.25
2022-11-20T16:01:07.496Z,99040.66
2022-11-20T16:03:36.207Z,99030.38
2022-11-20T16:06:04.829Z,99019.25
2022-11-20T16:08:33.201Z,99020.13
2022-11-20T16:11:02.072Z,99015.88
2022-11-20T16:13:44.427Z,99019.25
2022-11-20T16:16:23.385Z,99013.31
2022-11-20T16:18:52.662Z,99011.63
2022-11-20T16:21:21.149Z,99009.06
2022-11-20T16:23:49.489Z,99005.59
2022-11-20T16:26:19.873Z,99012.50
2022-11-20T16:28:48.293Z,99019.41
2022-11-20T16:31:19.954Z,99016.88
2022-11-20T16:33:52.794Z,99016.88
2022-11-20T16:36:23.766Z,99010.91
2022-11-20T16:38:55.485Z,99003.25
2022-11-20T16:41:24.673Z,99004.16
2022-11-20T16:43:55.326Z,99005.91
2022-11-20T16:46:26.896Z,99004.31
2022-11-20T16:48:57.147Z,98998.34
2022-11-20T16:51:27.322Z,98997.53
2022-11-20T16:53:57.355Z,98991.53
2022-11-20T16:56:28.076Z,99003.66
2022-11-20T16:59:00.439Z,98984.81
2022-11-20T17:01:31.584Z,98985.69
2022-11-20T17:04:02.457Z,98977.09
2022-11-20T17:06:33.794Z,98973.72
2022-11-20T17:09:02.585Z,98974.63
2022-11-20T17:11:31.267Z,98974.63
2022-11-20T17:14:01.027Z,98971.25
2022-11-20T17:16:31.788Z,98957.53
2022-11-20T17:19:03.310Z,98957.53
2022-11-20T17:21:32.925Z,98954.13
2022-11-20T17:24:03.492Z,98945.59
2022-11-20T17:26:32.224Z,98937.88
2022-11-20T17:29:03.272Z,98930.22
2022-11-20T17:31:36.099Z,98927.66
2022-11-20T17:34:05.628Z,98923.41
2022-11-20T17:36:34.237Z,98902.06
2022-11-20T17:39:02.652Z,98908.97
2022-11-20T17:41:31.528Z,98897.03
2022-11-20T17:44:02.109Z,98893.66
2022-11-20T17:46:34.493Z,98896.28
2022-11-20T17:49:04.836Z,98886.09
2022-11-20T17:51:36.046Z,98877.59
2022-11-20T17:54:07.503Z,98873.31
2022-11-20T17:57:05.384Z,98865.63
2022-11-20T17:59:33.879Z,98856.16
2022-11-20T18:02:06.710Z,98857.13
2022-11-20T18:04:35.159Z,98854.56
2022-11-20T18:07:03.735Z,98838.34
2022-11-20T18:09:32.345Z,98842.75
2022-11-20T18:12:01.878Z,98827.28
2022-11-20T18:14:32.760Z,98828.25
2022-11-20T18:17:06.019Z,98817.16
2022-11-20T18:19:44.692Z,98808.66
2022-11-20T18:22:21.522Z,98806.09
2022-11-20T18:24:50.566Z,98793.25
2022-11-20T18:27:21.646Z,98790.75
2022-11-20T18:29:51.925Z,98784.72
2022-11-20T18:32:22.817Z,98785.69
2022-11-20T18:34:52.427Z,98782.31
2022-11-20T18:37:21.250Z,98766.91
2022-11-20T18:39:50.417Z,98769.47
2022-11-20T18:42:36.790Z,98754.19
2022-11-20T18:45:06.396Z,98755.00
2022-11-20T18:47:40.042Z,98743.13
2022-11-20T18:50:10.969Z,98747.44
2022-11-20T18:52:44.556Z,98733.81
2022-11-20T18:55:14.314Z,98724.41
2022-11-20T18:57:42.823Z,98734.69
2022-11-20T19:00:12.907Z,98719.31
2022-11-20T19:02:43.576Z,98716.75
2022-11-20T19:05:16.322Z,98708.25
2022-11-20T19:07:44.931Z,98699.72
2022-11-20T19:10:13.488Z,98704.06
2022-11-20T19:12:41.927Z,98718.66
2022-11-20T19:15:12.865Z,98704.16
2022-11-20T19:17:43.269Z,98691.34
2022-11-20T19:20:12.991Z,98684.59
2022-11-20T19:22:41.347Z,98672.56
2022-11-20T19:25:10.487Z,98658.91
2022-11-20T19:27:38.865Z,98665.81
2022-11-20T19:30:08.735Z,98654.66
2022-11-20T19:32:37.415Z,98645.28
2022-11-20T19:35:08.176Z,98650.50
2022-11-20T19:37:39.824Z,98638.47
2022-11-20T19:40:11.726Z,98635.91
2022-11-20T19:42:40.521Z,98625.63
2022-11-20T19:45:10.971Z,98627.41
2022-11-20T19:48:06.588Z,98623.16
2022-11-20T19:50:29.245Z,98618.09
2022-11-20T19:52:59.035Z,98613.81
2022-11-20T19:55:27.863Z,98611.34
2022-11-20T19:57:56.381Z,98602.78
2022-11-20T20:00:31.075Z,98604.53
2022-11-20T20:03:01.229Z,98604.63
2022-11-20T20:05:30.963Z,98603.84
2022-11-20T20:07:59.405Z,98597.91
2022-11-20T20:10:29.655Z,98592.84
2022-11-20T20:12:58.294Z,98592.91
2022-11-20T20:15:27.043Z,98581.81
2022-11-20T20:17:55.828Z,98579.28
2022-11-20T20:20:24.895Z,98589.66
2022-11-20T20:22:54.773Z,98592.28
2022-11-20T20:25:25.330Z,98588.03
2022-11-20T20:27:53.994Z,98584.66
2022-11-20T20:30:22.623Z,98588.94
2022-11-20T20:32:56.117Z,98576.97
2022-11-20T20:35:25.458Z,98582.19
2022-11-20T20:37:55.453Z,98582.19
2022-11-20T20:40:23.854Z,98577.06
2022-11-20T20:42:52.269Z,98582.28
2022-11-20T20:45:20.638Z,98584.06
2022-11-20T20:47:49.199Z,98585.81
2022-11-20T20:50:18.031Z,98586.75
2022-11-20T20:52:46.684Z,98585.94
2022-11-20T20:55:16.747Z,98582.63
2022-11-20T20:57:45.242Z,98596.34
2022-11-20T21:00:14.495Z,98593.03
2022-11-20T21:02:42.916Z,98590.50
2022-11-20T21:05:11.407Z,98585.50
2022-11-20T21:07:59.840Z,98594.97
2022-11-20T21:10:31.259Z,98602.78
2022-11-20T21:12:59.733Z,98599.41
2022-11-20T21:15:31.123Z,98604.66
2022-11-20T21:17:59.480Z,98614.19
2022-11-20T21:20:45.368Z,98610.75
2022-11-20T21:23:13.738Z,98608.91
2022-11-20T21:25:43.587Z,98607.22
2022-11-20T21:28:16.835Z,98628.66
2022-11-20T21:30:46.619Z,98636.38
2022-11-20T21:33:15.499Z,98639.00
2022-11-20T21:35:44.131Z,98639.81
2022-11-20T21:38:12.621Z,98656.06
2022-11-20T21:40:40.976Z,98662.03
2022-11-20T21:43:10.980Z,98661.91
2022-11-20T21:45:39.582Z,98667.75
2022-11-20T21:48:08.221Z,98672.72
2022-11-20T21:50:36.666Z,98669.09
2022-11-20T21:53:05.339Z,98674.94
2022-11-20T21:55:33.827Z,98680.78
2022-11-20T21:58:02.472Z,98683.13
2022-11-20T22:00:32.535Z,98687.25
2022-11-20T22:03:01.746Z,98681.13
2022-11-20T22:05:30.130Z,98692.13
2022-11-20T22:07:58.539Z,98692.94
2022-11-20T22:10:27.998Z,98698.84
2022-11-20T22:13:17.119Z,98703.78
2022-11-20T22:16:00.277Z,98706.28
2022-11-20T22:18:29.663Z,98713.03
2022-11-20T22:20:58.342Z,98715.41
2022-11-20T22:23:27.152Z,98715.28
2022-11-20T22:25:55.484Z,98722.78
2022-11-20T22:28:24.069Z,98729.41
2022-11-20T22:30:58.637Z,98727.63
2022-11-20T22:33:28.083Z,98739.38
2022-11-20T22:36:04.024Z,98743.53
2022-11-20T22:38:38.888Z,98750.25
2022-11-20T22:41:10.402Z,98751.00
2022-11-20T22:43:39.755Z,98756.84
2022-11-20T22:46:12.869Z,98758.44
2022-11-20T22:48:44.002Z,98765.31
2022-11-20T22:51:15.146Z,98773.06
2022-11-20T22:53:44.666Z,98776.50
2022-11-20T22:56:14.971Z,98777.38
2022-11-20T22:58:46.783Z,98790.81
2022-11-20T23:01:18.574Z,98789.13
2022-11-20T23:03:49.235Z,98795.06
2022-11-20T23:06:20.305Z,98801.84
2022-11-20T23:08:50.283Z,98800.88
2022-11-20T23:11:21.417Z,98811.00
2022-11-20T23:13:57.960Z,98815.88
2022-11-20T23:16:30.360Z,98819.94
2022-11-20T23:19:00.856Z,98824.06
2022-11-20T23:21:29.933Z,98827.28
2022-11-20T23:24:00.896Z,98833.97
2022-11-20T23:26:32.356Z,98833.88
2022-11-20T23:29:02.384Z,98833.75
2022-11-20T23:31:34.765Z,98838.88
2022-11-20T23:34:03.268Z,98842.25
2022-11-20T23:36:32.270Z,98845.63
2022-11-20T23:39:00.687Z,98848.03
2022-11-20T23:41:29.200Z,98847.09
2022-11-20T23:43:57.757Z,98855.56
2022-11-20T23:46:26.151Z,98856.38
2022-11-20T23:48:55.954Z,98858.09
2022-11-20T23:51:24.343Z,98861.47
2022-11-20T23:53:53.003Z,98865.72
2022-11-20T23:56:21.447Z,98870.03
2022-11-20T23:58:49.897Z,98865.63
